createdAt,value
2022-12-27T00:00:29.797Z,0.50
2022-12-27T00:02:56.706Z,0.45
2022-12-27T00:05:23.682Z,0.52
2022-12-27T00:07:50.718Z,0.60
2022-12-27T00:10:17.639Z,0.63
2022-12-27T00:12:44.657Z,0.50
2022-12-27T00:15:11.771Z,0.50
2022-12-27T00:17:39.737Z,0.43
2022-12-27T00:20:11.454Z,0.40
2022-12-27T00:22:38.853Z,0.40
2022-12-27T00:25:06.009Z,0.40
2022-12-27T00:27:32.924Z,0.50
2022-12-27T00:29:59.952Z,0.22
2022-12-27T00:32:26.899Z,0.28
2022-12-27T00:34:53.793Z,0.40
2022-12-27T00:37:20.624Z,0.68
2022-12-27T00:39:47.767Z,0.50
2022-12-27T00:42:14.620Z,0.60
2022-12-27T00:44:43.426Z,0.40
2022-12-27T00:47:15.516Z,0.65
2022-12-27T00:49:42.719Z,0.47
2022-12-27T00:52:09.849Z,0.50
2022-12-27T00:54:36.926Z,0.40
2022-12-27T00:57:03.840Z,0.50
2022-12-27T00:59:30.985Z,0.40
2022-12-27T01:01:58.653Z,0.47
2022-12-27T01:04:26.451Z,0.40
2022-12-27T01:06:53.305Z,0.30
2022-12-27T01:09:20.407Z,0.40
2022-12-27T01:11:47.395Z,0.32
2022-12-27T01:14:14.609Z,0.30
2022-12-27T01:16:41.712Z,0.50
2022-12-27T01:19:08.781Z,0.50
2022-12-27T01:21:35.836Z,0.38
2022-12-27T01:24:02.906Z,0.40
2022-12-27T01:26:30.568Z,0.30
2022-12-27T01:28:57.598Z,0.28
2022-12-27T01:31:28.440Z,0.50
2022-12-27T01:33:59.848Z,0.30
2022-12-27T01:36:28.036Z,0.60
2022-12-27T01:38:55.318Z,0.50
2022-12-27T01:42:03.667Z,0.47
2022-12-27T01:44:52.320Z,0.50
2022-12-27T01:47:43.933Z,0.32
2022-12-27T01:50:36.658Z,0.40
2022-12-27T01:53:14.188Z,0.55
2022-12-27T01:55:45.911Z,0.38
2022-12-27T01:58:29.020Z,0.40
2022-12-27T02:00:56.127Z,0.38
2022-12-27T02:03:47.101Z,0.43
2022-12-27T02:06:14.323Z,0.43
2022-12-27T02:08:54.036Z,0.30
2022-12-27T02:11:43.057Z,0.40
2022-12-27T02:14:10.252Z,0.40
2022-12-27T02:16:37.278Z,0.60
2022-12-27T02:19:10.893Z,0.28
2022-12-27T02:24:40.532Z,0.20
2022-12-27T02:27:30.551Z,0.28
2022-12-27T02:30:04.224Z,0.35
2022-12-27T02:32:35.936Z,0.40
2022-12-27T02:35:30.174Z,0.40
2022-12-27T02:38:22.746Z,0.40
2022-12-27T02:41:07.821Z,0.45
2022-12-27T02:43:53.029Z,0.30
2022-12-27T02:46:45.273Z,0.40
2022-12-27T02:49:46.593Z,0.32
2022-12-27T02:52:44.791Z,0.70
2022-12-27T02:55:14.444Z,0.32
2022-12-27T02:57:58.311Z,0.50
2022-12-27T03:00:43.374Z,0.30
2022-12-27T03:03:39.643Z,0.60
2022-12-27T03:06:39.066Z,0.40
2022-12-27T03:09:08.567Z,0.30
2022-12-27T03:12:06.074Z,0.35
2022-12-27T03:14:57.438Z,0.30
2022-12-27T03:17:28.078Z,0.40
2022-12-27T03:20:14.250Z,0.30
2022-12-27T03:22:59.481Z,0.43
2022-12-27T03:25:28.738Z,0.20
2022-12-27T03:28:25.663Z,0.30
2022-12-27T03:31:18.998Z,0.30
2022-12-27T03:33:45.968Z,0.30
2022-12-27T03:36:34.685Z,0.40
2022-12-27T03:39:09.628Z,0.40
2022-12-27T03:42:03.894Z,0.30
2022-12-27T03:44:30.584Z,0.40
2022-12-27T03:46:58.858Z,0.30
2022-12-27T03:49:54.243Z,0.30
2022-12-27T03:52:22.585Z,0.22
2022-12-27T03:54:50.150Z,0.38
2022-12-27T03:57:21.887Z,0.30
2022-12-27T03:59:48.597Z,0.30
2022-12-27T04:02:15.470Z,0.30
2022-12-27T04:04:42.369Z,0.30
2022-12-27T04:07:09.128Z,0.25
2022-12-27T04:09:54.494Z,0.30
2022-12-27T04:12:39.714Z,0.57
2022-12-27T04:15:26.611Z,0.22
2022-12-27T04:18:12.006Z,0.43
2022-12-27T04:20:57.821Z,0.20
2022-12-27T04:23:42.904Z,0.40
2022-12-27T04:26:28.098Z,0.20
2022-12-27T04:29:13.526Z,0.25
2022-12-27T04:31:58.795Z,0.15
2022-12-27T04:34:43.955Z,0.20
2022-12-27T04:37:39.453Z,0.13
2022-12-27T04:40:25.511Z,0.20
2022-12-27T04:43:10.681Z,0.40
2022-12-27T04:45:55.776Z,0.30
2022-12-27T04:48:41.029Z,0.25
2022-12-27T04:51:27.227Z,0.30
2022-12-27T04:54:12.451Z,0.20
2022-12-27T04:56:39.119Z,0.20
2022-12-27T04:59:24.562Z,0.40
2022-12-27T05:02:03.285Z,0.40
2022-12-27T05:04:35.014Z,0.47
2022-12-27T05:07:24.334Z,0.28
2022-12-27T05:10:09.620Z,0.20
2022-12-27T05:12:54.728Z,0.30
2022-12-27T05:15:21.452Z,0.25
2022-12-27T05:17:48.138Z,0.20
2022-12-27T05:20:15.160Z,0.13
2022-12-27T05:23:00.326Z,0.20
2022-12-27T05:25:35.781Z,0.20
2022-12-27T05:28:03.218Z,0.20
2022-12-27T05:30:32.041Z,0.38
2022-12-27T05:32:59.178Z,0.20
2022-12-27T05:35:26.054Z,0.22
2022-12-27T05:37:55.276Z,0.22
2022-12-27T05:40:22.697Z,0.25
2022-12-27T05:42:49.481Z,0.20
2022-12-27T05:45:16.347Z,0.20
2022-12-27T05:47:43.077Z,0.22
2022-12-27T05:50:10.048Z,0.30
2022-12-27T05:52:40.927Z,0.28
2022-12-27T05:55:08.627Z,0.40
2022-12-27T05:57:35.328Z,0.20
2022-12-27T06:00:02.323Z,0.20
2022-12-27T06:02:29.156Z,0.43
2022-12-27T06:04:55.997Z,0.20
2022-12-27T06:07:22.871Z,0.35
2022-12-27T06:09:49.736Z,0.20
2022-12-27T06:12:16.426Z,0.32
2022-12-27T06:14:43.090Z,0.28
2022-12-27T06:17:09.757Z,0.20
2022-12-27T06:19:36.514Z,0.22
2022-12-27T06:22:03.210Z,0.30
2022-12-27T06:24:29.879Z,0.38
2022-12-27T06:26:56.544Z,0.22
2022-12-27T06:29:23.213Z,0.30
2022-12-27T06:31:49.962Z,0.40
2022-12-27T06:34:17.044Z,0.30
2022-12-27T06:36:49.839Z,0.40
2022-12-27T06:39:19.873Z,0.40
2022-12-27T06:41:46.600Z,0.20
2022-12-27T06:44:13.493Z,0.30
2022-12-27T06:46:40.181Z,0.40
2022-12-27T06:49:06.888Z,0.20
2022-12-27T06:51:33.728Z,0.30
2022-12-27T06:54:00.399Z,0.20
2022-12-27T06:56:27.094Z,0.32
2022-12-27T06:58:54.488Z,0.30
2022-12-27T07:01:26.201Z,0.20
2022-12-27T07:03:59.753Z,0.40
2022-12-27T07:08:54.578Z,0.50
2022-12-27T07:11:21.440Z,0.40
2022-12-27T07:13:49.827Z,0.25
2022-12-27T07:16:20.424Z,0.65
2022-12-27T07:18:49.692Z,0.50
2022-12-27T07:21:18.871Z,0.43
2022-12-27T07:23:45.759Z,0.52
2022-12-27T07:26:17.366Z,0.40
2022-12-27T07:28:44.031Z,0.30
2022-12-27T07:31:15.325Z,0.40
2022-12-27T07:33:42.265Z,0.60
2022-12-27T07:36:39.091Z,0.32
2022-12-27T07:39:06.219Z,0.30
2022-12-27T07:41:32.957Z,0.38
2022-12-27T07:43:59.647Z,0.50
2022-12-27T07:46:26.822Z,0.50
2022-12-27T07:48:55.259Z,0.50
2022-12-27T07:51:22.367Z,0.50
2022-12-27T07:53:49.501Z,0.38
2022-12-27T07:56:25.257Z,0.60
2022-12-27T07:58:52.992Z,0.28
2022-12-27T08:01:21.025Z,0.35
2022-12-27T08:03:47.830Z,0.57
2022-12-27T08:06:27.911Z,0.57
2022-12-27T08:08:54.664Z,0.70
2022-12-27T08:11:21.513Z,0.40
2022-12-27T08:13:48.257Z,0.55
2022-12-27T08:16:19.904Z,0.50
2022-12-27T08:18:46.789Z,0.47
2022-12-27T08:21:13.728Z,0.47
2022-12-27T08:23:40.436Z,0.60
2022-12-27T08:26:07.948Z,0.50
2022-12-27T08:28:36.141Z,0.70
2022-12-27T08:31:06.052Z,0.40
2022-12-27T08:33:32.754Z,0.30
2022-12-27T08:36:15.701Z,0.35
2022-12-27T08:38:54.253Z,0.30
2022-12-27T08:41:21.944Z,0.38
2022-12-27T08:43:48.725Z,0.50
2022-12-27T08:46:15.454Z,0.43
2022-12-27T08:48:42.301Z,0.28
2022-12-27T08:51:13.151Z,0.45
2022-12-27T08:53:42.305Z,0.60
2022-12-27T08:56:09.143Z,0.30
2022-12-27T08:58:35.945Z,0.50
2022-12-27T09:01:06.970Z,0.40
2022-12-27T09:03:33.912Z,0.40
2022-12-27T09:06:17.177Z,0.50
2022-12-27T09:08:44.628Z,0.40
2022-12-27T09:11:35.390Z,0.47
2022-12-27T09:14:03.552Z,0.47
2022-12-27T09:16:30.804Z,0.40
2022-12-27T09:18:59.736Z,0.77
2022-12-27T09:21:28.614Z,0.52
2022-12-27T09:23:58.059Z,0.55
2022-12-27T09:26:26.532Z,0.30
2022-12-27T09:28:53.649Z,0.57
2022-12-27T09:31:21.322Z,0.63
2022-12-27T09:33:48.325Z,0.75
2022-12-27T09:36:16.834Z,0.45
2022-12-27T09:38:43.714Z,0.30
2022-12-27T09:42:45.919Z,0.40
2022-12-27T09:44:35.346Z,0.40
2022-12-27T09:47:17.689Z,0.60
2022-12-27T09:49:58.897Z,0.40
2022-12-27T09:52:38.261Z,0.30
2022-12-27T09:55:05.620Z,0.30
2022-12-27T09:57:42.794Z,0.40
2022-12-27T10:00:34.191Z,0.68
2022-12-27T10:03:04.489Z,0.32
2022-12-27T10:05:33.118Z,0.40
2022-12-27T10:08:53.627Z,0.30
2022-12-27T10:11:37.202Z,0.32
2022-12-27T10:17:00.217Z,0.30
2022-12-27T10:20:00.898Z,0.65
2022-12-27T10:22:39.310Z,0.60
2022-12-27T10:25:11.555Z,0.63
2022-12-27T10:27:38.699Z,0.52
2022-12-27T10:30:16.895Z,0.40
2022-12-27T10:32:44.165Z,0.93
2022-12-27T10:35:13.694Z,0.68
2022-12-27T10:37:40.895Z,0.47
2022-12-27T10:40:15.862Z,0.65
2022-12-27T10:42:47.550Z,1.10
2022-12-27T10:45:33.978Z,0.65
2022-12-27T10:48:36.388Z,0.90
2022-12-27T10:51:13.980Z,0.77
2022-12-27T10:53:47.464Z,0.80
2022-12-27T10:56:16.778Z,1.02
2022-12-27T10:58:52.990Z,0.82
2022-12-27T11:01:24.700Z,0.60
2022-12-27T11:04:27.451Z,0.70
2022-12-27T11:07:00.065Z,0.38
2022-12-27T11:09:36.144Z,0.50
2022-12-27T11:12:13.924Z,0.60
2022-12-27T11:14:56.344Z,0.50
2022-12-27T11:17:44.729Z,0.40
2022-12-27T11:20:20.178Z,0.70
2022-12-27T11:22:59.963Z,0.88
2022-12-27T11:25:27.679Z,0.60
2022-12-27T11:28:02.261Z,0.68
2022-12-27T11:30:37.139Z,1.08
2022-12-27T11:33:06.102Z,0.82
2022-12-27T11:35:34.029Z,1.17
2022-12-27T11:38:00.776Z,0.73
2022-12-27T11:40:30.621Z,0.80
2022-12-27T11:43:04.287Z,1.17
2022-12-27T11:45:42.767Z,0.70
2022-12-27T11:48:36.409Z,0.77
2022-12-27T11:51:30.464Z,0.70
2022-12-27T11:54:15.191Z,0.70
2022-12-27T11:56:45.594Z,1.00
2022-12-27T11:59:33.581Z,0.77
2022-12-27T12:02:04.723Z,0.40
2022-12-27T12:05:06.127Z,0.52
2022-12-27T12:08:02.445Z,0.77
2022-12-27T12:10:57.927Z,0.70
2022-12-27T12:13:39.713Z,0.82
2022-12-27T12:16:31.276Z,0.90
2022-12-27T12:19:06.945Z,0.90
2022-12-27T12:21:34.757Z,0.60
2022-12-27T12:24:26.587Z,1.30
2022-12-27T12:27:35.279Z,1.00
2022-12-27T12:30:12.847Z,1.00
2022-12-27T12:33:02.693Z,1.10
2022-12-27T12:36:07.281Z,1.20
2022-12-27T12:38:43.364Z,1.10
2022-12-27T12:41:25.134Z,0.90
2022-12-27T12:44:10.563Z,0.80
2022-12-27T12:46:53.875Z,1.42
2022-12-27T12:49:44.210Z,0.75
2022-12-27T12:52:18.965Z,0.68
2022-12-27T12:55:15.401Z,0.90
2022-12-27T12:58:05.739Z,1.25
2022-12-27T13:00:41.150Z,1.00
2022-12-27T13:03:16.980Z,1.27
2022-12-27T13:05:46.885Z,1.20
2022-12-27T13:08:29.206Z,0.75
2022-12-27T13:11:18.858Z,0.93
2022-12-27T13:13:48.642Z,0.80
2022-12-27T13:16:36.761Z,0.88
2022-12-27T13:19:25.341Z,1.15
2022-12-27T13:22:25.436Z,1.17
2022-12-27T13:25:18.867Z,1.10
2022-12-27T13:28:23.666Z,0.95
2022-12-27T13:31:21.189Z,1.58
2022-12-27T13:34:00.020Z,1.20
2022-12-27T13:36:51.047Z,0.80
2022-12-27T13:39:56.189Z,1.00
2022-12-27T13:42:22.943Z,0.90
2022-12-27T13:44:54.528Z,0.90
2022-12-27T13:47:33.706Z,0.60
2022-12-27T13:50:32.598Z,1.35
2022-12-27T13:53:24.390Z,0.73
2022-12-27T13:56:55.702Z,0.85
2022-12-27T14:00:02.182Z,0.85
2022-12-27T14:02:38.146Z,0.88
2022-12-27T14:05:31.947Z,1.13
2022-12-27T14:08:17.159Z,1.08
2022-12-27T14:10:48.289Z,0.80
2022-12-27T14:13:26.839Z,0.80
2022-12-27T14:16:35.003Z,0.90
2022-12-27T14:19:35.210Z,1.05
2022-12-27T14:22:17.347Z,0.82
2022-12-27T14:24:56.350Z,1.00
2022-12-27T14:27:56.758Z,1.40
2022-12-27T14:30:49.769Z,0.80
2022-12-27T14:33:55.130Z,0.93
2022-12-27T14:36:42.587Z,1.40
2022-12-27T14:39:46.993Z,1.05
2022-12-27T14:42:25.744Z,1.27
2022-12-27T14:45:14.487Z,1.02
2022-12-27T14:47:55.610Z,1.25
2022-12-27T14:50:59.512Z,1.40
2022-12-27T14:54:11.551Z,1.33
2022-12-27T14:56:50.464Z,0.80
2022-12-27T14:59:47.418Z,1.08
2022-12-27T15:02:32.279Z,1.20
2022-12-27T15:04:59.055Z,1.08
2022-12-27T15:08:09.975Z,0.98
2022-12-27T15:11:06.112Z,1.10
2022-12-27T15:13:51.687Z,1.00
2022-12-27T15:16:51.007Z,1.15
2022-12-27T15:19:41.358Z,1.15
2022-12-27T15:22:23.398Z,1.00
2022-12-27T15:25:05.184Z,0.80
2022-12-27T15:27:50.240Z,0.70
2022-12-27T15:30:28.104Z,0.93
2022-12-27T15:33:11.419Z,0.60
2022-12-27T15:35:57.888Z,0.77
2022-12-27T15:38:52.622Z,0.90
2022-12-27T15:41:35.426Z,0.68
2022-12-27T15:44:22.408Z,1.65
2022-12-27T15:47:20.075Z,1.23
2022-12-27T15:50:04.495Z,0.90
2022-12-27T15:52:53.068Z,1.05
2022-12-27T15:55:26.873Z,1.45
2022-12-27T15:58:02.503Z,0.95
2022-12-27T16:00:34.003Z,1.27
2022-12-27T16:03:02.863Z,1.33
2022-12-27T16:05:49.334Z,0.85
2022-12-27T16:08:26.449Z,1.30
2022-12-27T16:10:53.435Z,1.10
2022-12-27T16:13:46.011Z,1.50
2022-12-27T16:16:28.436Z,1.10
2022-12-27T16:19:17.391Z,1.13
2022-12-27T16:21:45.703Z,1.15
2022-12-27T16:24:17.363Z,0.98
2022-12-27T16:26:52.305Z,0.98
2022-12-27T16:29:18.941Z,0.68
2022-12-27T16:31:48.759Z,1.13
2022-12-27T16:34:28.958Z,1.00
2022-12-27T16:36:57.347Z,0.98
2022-12-27T16:39:24.001Z,1.13
2022-12-27T16:41:56.897Z,1.20
2022-12-27T16:44:23.590Z,1.20
2022-12-27T16:47:31.466Z,1.17
2022-12-27T16:50:33.594Z,1.15
2022-12-27T16:53:49.109Z,0.80
2022-12-27T16:56:25.707Z,1.05
2022-12-27T16:58:52.425Z,1.52
2022-12-27T17:01:52.643Z,1.33
2022-12-27T17:04:52.015Z,0.90
2022-12-27T17:07:55.364Z,0.60
2022-12-27T17:10:28.384Z,1.45
2022-12-27T17:12:59.214Z,0.98
2022-12-27T17:15:26.124Z,1.33
2022-12-27T17:17:54.902Z,1.55
2022-12-27T17:20:21.938Z,1.00
2022-12-27T17:22:49.535Z,1.20
2022-12-27T17:25:18.104Z,1.33
2022-12-27T17:28:24.319Z,1.13
2022-12-27T17:31:05.908Z,1.40
2022-12-27T17:33:50.787Z,1.70
2022-12-27T17:36:35.329Z,1.67
2022-12-27T17:39:11.603Z,1.90
2022-12-27T17:42:09.933Z,1.80
2022-12-27T17:44:48.076Z,1.20
2022-12-27T17:47:33.431Z,1.00
2022-12-27T17:50:05.579Z,1.60
2022-12-27T17:52:50.775Z,1.48
2022-12-27T17:55:40.865Z,1.10
2022-12-27T17:58:09.689Z,1.80
2022-12-27T18:00:51.649Z,1.00
2022-12-27T18:03:18.541Z,1.60
2022-12-27T18:05:46.199Z,1.02
2022-12-27T18:08:34.085Z,1.10
2022-12-27T18:11:01.707Z,1.13
2022-12-27T18:13:34.068Z,0.82
2022-12-27T18:16:01.121Z,1.20
2022-12-27T18:18:34.029Z,1.17
2022-12-27T18:21:05.163Z,1.02
2022-12-27T18:23:43.443Z,1.27
2022-12-27T18:26:14.422Z,1.27
2022-12-27T18:28:41.594Z,1.40
2022-12-27T18:31:32.608Z,1.27
2022-12-27T18:34:11.174Z,1.30
2022-12-27T18:36:56.948Z,1.33
2022-12-27T18:39:27.683Z,0.85
2022-12-27T18:41:54.425Z,0.93
2022-12-27T18:44:27.738Z,1.27
2022-12-27T18:46:56.455Z,1.10
2022-12-27T18:49:27.920Z,1.42
2022-12-27T18:51:55.013Z,1.45
2022-12-27T18:54:27.936Z,1.40
2022-12-27T18:56:58.100Z,1.20
2022-12-27T18:59:35.986Z,1.40
2022-12-27T19:02:12.885Z,1.00
2022-12-27T19:04:39.648Z,1.30
2022-12-27T19:07:14.231Z,1.10
2022-12-27T19:09:43.551Z,0.98
2022-12-27T19:12:28.833Z,1.23
2022-12-27T19:14:55.740Z,0.85
2022-12-27T19:17:30.040Z,1.00
2022-12-27T19:20:01.632Z,1.00
2022-12-27T19:22:36.446Z,1.00
2022-12-27T19:25:18.737Z,0.95
2022-12-27T19:28:10.830Z,0.80
2022-12-27T19:30:41.809Z,0.80
2022-12-27T19:33:15.740Z,0.95
2022-12-27T19:35:42.442Z,0.82
2022-12-27T19:38:20.757Z,1.33
2022-12-27T19:40:54.373Z,1.10
2022-12-27T19:43:28.964Z,1.30
2022-12-27T19:45:55.742Z,0.95
2022-12-27T19:48:22.540Z,0.88
2022-12-27T19:50:53.683Z,0.77
2022-12-27T19:53:27.221Z,0.60
2022-12-27T19:55:53.896Z,1.20
2022-12-27T19:58:27.362Z,0.85
2022-12-27T20:00:54.091Z,0.77
2022-12-27T20:03:20.886Z,1.20
2022-12-27T20:06:13.557Z,0.98
2022-12-27T20:08:44.525Z,1.20
2022-12-27T20:11:14.833Z,0.60
2022-12-27T20:13:41.688Z,1.30
2022-12-27T20:16:10.570Z,1.10
2022-12-27T20:18:38.491Z,1.83
2022-12-27T20:21:05.594Z,1.27
2022-12-27T20:23:32.321Z,1.15
2022-12-27T20:25:59.069Z,1.38
2022-12-27T20:28:25.745Z,1.23
2022-12-27T20:30:52.617Z,1.40
2022-12-27T20:33:19.565Z,1.20
2022-12-27T20:35:54.260Z,1.17
2022-12-27T20:38:20.949Z,1.75
2022-12-27T20:40:47.818Z,1.15
2022-12-27T20:43:14.567Z,1.38
2022-12-27T20:45:41.384Z,1.75
2022-12-27T20:48:09.302Z,0.88
2022-12-27T20:50:39.909Z,1.02
2022-12-27T20:53:06.938Z,0.80
2022-12-27T20:55:34.443Z,1.10
2022-12-27T20:58:01.444Z,1.10
2022-12-27T21:00:28.218Z,1.25
2022-12-27T21:02:54.984Z,0.70
2022-12-27T21:05:21.870Z,1.00
2022-12-27T21:07:48.604Z,0.70
2022-12-27T21:10:15.323Z,1.20
2022-12-27T21:12:42.169Z,1.00
2022-12-27T21:15:09.310Z,1.00
2022-12-27T21:17:36.127Z,1.15
2022-12-27T21:20:02.934Z,1.38
2022-12-27T21:22:29.653Z,1.23
2022-12-27T21:24:56.600Z,0.80
2022-12-27T21:27:23.305Z,1.13
2022-12-27T21:29:49.998Z,1.10
2022-12-27T21:32:17.836Z,1.02
2022-12-27T21:34:44.648Z,1.38
2022-12-27T21:37:13.466Z,0.90
2022-12-27T21:39:40.661Z,0.82
2022-12-27T21:42:07.595Z,1.00
2022-12-27T21:44:36.928Z,1.23
2022-12-27T21:47:03.763Z,1.10
2022-12-27T21:49:30.531Z,1.08
2022-12-27T21:51:57.297Z,0.73
2022-12-27T21:54:24.155Z,0.80
2022-12-27T21:56:50.952Z,1.27
2022-12-27T21:59:17.650Z,0.88
2022-12-27T22:01:50.152Z,1.20
2022-12-27T22:04:19.260Z,0.70
2022-12-27T22:06:47.379Z,1.10
2022-12-27T22:09:14.605Z,0.70
2022-12-27T22:11:41.345Z,1.27
2022-12-27T22:14:08.232Z,0.85
2022-12-27T22:16:37.610Z,0.85
2022-12-27T22:19:09.883Z,0.52
2022-12-27T22:21:36.775Z,0.73
2022-12-27T22:24:04.048Z,0.85
2022-12-27T22:26:33.207Z,0.60
2022-12-27T22:29:00.192Z,0.80
2022-12-27T22:31:30.524Z,0.65
2022-12-27T22:33:57.357Z,1.13
2022-12-27T22:36:24.949Z,0.85
2022-12-27T22:38:53.613Z,0.45
2022-12-27T22:41:22.099Z,0.47
2022-12-27T22:43:50.874Z,0.52
2022-12-27T22:46:18.924Z,0.60
2022-12-27T22:48:50.601Z,0.30
2022-12-27T22:51:21.700Z,0.32
2022-12-27T22:53:49.450Z,0.35
2022-12-27T22:56:20.348Z,0.35
2022-12-27T22:58:47.694Z,0.50
2022-12-27T23:01:17.217Z,0.45
2022-12-27T23:03:44.459Z,0.68
2022-12-27T23:06:12.389Z,0.40
2022-12-27T23:08:39.956Z,0.30
2022-12-27T23:11:08.566Z,0.43
2022-12-27T23:13:35.379Z,0.28
2022-12-27T23:16:03.579Z,0.40
2022-12-27T23:18:31.758Z,0.63
2022-12-27T23:21:21.557Z,0.47
2022-12-27T23:23:45.871Z,0.75
2022-12-27T23:26:20.668Z,0.50
2022-12-27T23:28:47.715Z,0.57
2022-12-27T23:31:18.106Z,0.57
2022-12-27T23:33:45.087Z,0.40
2022-12-27T23:36:12.509Z,0.40
2022-12-27T23:38:40.502Z,0.28
2022-12-27T23:41:07.727Z,0.30
2022-12-27T23:43:55.850Z,0.50
2022-12-27T23:46:25.185Z,0.35
2022-12-27T23:48:52.412Z,0.40
2022-12-27T23:51:19.264Z,0.20
2022-12-27T23:53:46.020Z,0.40
2022-12-27T23:56:20.725Z,0.30
2022-12-27T23:58:47.648Z,0.30
